Saugatuck, MI (49453)

1:58 AM EDT on March 28, 2017 (GMT -0400)
Windjammer of Saugatuck | | Change Station

Elev 574 ft 42.65 °N, 86.20 °W | Updated 12 seconds ago

Overcast
Overcast
41.2 °F
Feels Like 38 °F
N
5.1
Wind Variable Wind from NW
Gusts 7.4 mph

Today
High -- | Low -- °F
--% Chance of Precip.
Yesterday
High -- | Low -- °F
Precip. -- in
Pressure 29.98 in
Visibility 10.0 miles
Clouds Few 1100 ft
Overcast 3700 ft
Windchill 38 °F
Dew Point 37 °F
Humidity 84%
Rainfall 0.00 in
Snow Depth Not available.
7:33 AM 8:06 PM
New Moon, 0% visible
METAR KBIV 280553Z AUTO 35005KT 10SM FEW011 OVC037 05/03 A2997 RMK AO2 SLP152 T00500028 10067 20050 53005
Pressure 29.98 in
Visibility 10.0 miles
Clouds Few 1100 ft
Overcast 3700 ft
Windchill 38 °F
Dew Point 37 °F
Humidity 84%
Rainfall 0.00 in
Snow Depth Not available.
7:33 AM 8:06 PM
New Moon, 0% visible
METAR KBIV 280553Z AUTO 35005KT 10SM FEW011 OVC037 05/03 A2997 RMK AO2 SLP152 T00500028 10067 20050 53005

Get Severe Weather Alerts

Thanks for signing up!

Be on the lookout for a verification email in your inbox.

You'll start receiving the daily forecast at 8 AM.

×

10-Day Weather Forecast

Almanac

Astronomy

Mar. 28, 2017 Rise Set
Actual Time
Civil Twilight
Nautical Twilight
Astronomical Twilight
Moon
Length of Visible Light
Length of Day
Tomorrow will be .
, % of the Moon is Illuminated

Today's Extremes

State Highs State Lows

Community

WunderPhotos

Upload Photos

1,962,540 photos uploaded!

WunderBlog® & News

Nearby

Air Quality

  Air Quality AQ Index Pollutant
Not available.

Snow Depth

Station Depth Elevation

Earthquake Activity

City Distance Mag. Time & Date
Minimum magnitude displayed is 2.5.

Earthquake Activity

City Distance Mag. Time & Date
Minimum magnitude displayed is 2.5.

Coastal Water Temperatures

Place Temperature

Stations

Nearby Weather Stations

Station Location Temp. Windchill Dew Point Humidity Wind Precip. Elev Updated Type
                   

Watches & Warnings

There are currently no watches in effect.